Time;durP1;ratioP1;P1;durP2;ratioP2;P2;SDS_P1;SDS_P2;PMS_P1;PMS_P2;Temp;Humidity;BMP_temperature;BMP_pressure;BME280_temperature;BME280_humidity;BME280_pressure;Samples;Min_cycle;Max_cycle;Signal;HPM_P1;HPM_P2
2023/07/21 00:01:05;;;;;;;0.30;0.30;;;27.10;63.50;;;27.69;47.70;94677.09;5075843;28;20215;-38
2023/07/21 00:03:33;;;;;;;0.38;0.38;;;27.10;63.60;;;27.68;47.32;94675.50;5075436;28;20212;-36
2023/07/21 00:06:06;;;;;;;0.30;0.30;;;27.10;63.60;;;27.67;47.25;94676.59;5075836;28;20212;-36
2023/07/21 00:08:37;;;;;;;0.20;0.20;;;27.10;63.60;;;27.64;47.77;94670.72;5076147;28;20182;-36
2023/07/21 00:11:05;;;;;;;0.30;0.30;;;27.00;63.60;;;27.62;47.26;94675.63;5075135;28;20242;-36
2023/07/21 00:13:36;;;;;;;0.30;0.30;;;27.00;63.60;;;27.60;47.51;94671.63;5058236;28;20200;-36
2023/07/21 00:16:04;;;;;;;0.30;0.30;;;27.00;63.60;;;27.58;47.32;94669.25;5076553;28;20183;-37
2023/07/21 00:18:33;;;;;;;0.40;0.40;;;27.00;63.70;;;27.58;47.52;94671.16;5075852;28;20194;-36
2023/07/21 00:21:01;;;;;;;0.30;0.30;;;27.00;63.70;;;27.55;47.71;94667.19;5076082;28;20653;-35
2023/07/21 00:23:31;;;;;;;0.30;0.30;;;27.00;63.80;;;27.54;47.64;94665.59;5075843;28;20603;-36
2023/07/21 00:26:00;;;;;;;0.28;0.28;;;27.00;63.80;;;27.53;47.56;94671.28;5075167;28;20207;-36
2023/07/21 00:28:28;;;;;;;0.30;0.30;;;26.90;63.70;;;27.51;47.81;94670.78;5075917;28;20247;-41
2023/07/21 00:30:55;;;;;;;0.35;0.35;;;26.90;63.70;;;27.49;47.65;94660.31;5076422;28;20198;-36
2023/07/21 00:33:25;;;;;;;0.20;0.20;;;26.90;63.80;;;27.48;47.83;94658.72;5077178;28;20197;-36
2023/07/21 00:35:52;;;;;;;0.40;0.40;;;26.90;63.70;;;27.46;47.74;94659.00;5096460;28;20203;-38
2023/07/21 00:38:21;;;;;;;0.40;0.40;;;26.90;63.80;;;27.45;47.71;94656.63;5080297;28;20192;-37
2023/07/21 00:40:48;;;;;;;0.30;0.30;;;26.90;63.80;;;27.43;47.75;94654.25;5080317;28;20185;-37
2023/07/21 00:43:17;;;;;;;0.30;0.30;;;26.90;63.90;;;27.43;47.70;94651.56;5079307;28;20260;-38
2023/07/21 00:45:46;;;;;;;0.20;0.20;;;26.90;63.90;;;27.34;48.15;94637.19;5080345;28;20228;-38
2023/07/21 00:48:18;;;;;;;0.20;0.20;;;26.90;63.90;;;27.40;47.83;94652.13;5080771;28;20528;-36
2023/07/21 00:50:48;;;;;;;0.30;0.30;;;26.90;64.10;;;27.38;48.10;94653.53;5081204;28;20184;-36
2023/07/21 00:53:15;;;;;;;0.30;0.30;;;26.90;64.00;;;27.37;48.12;94654.63;5079595;28;20215;-37
2023/07/21 00:55:45;;;;;;;0.38;0.38;;;26.90;64.00;;;27.35;48.08;94648.78;5080831;28;20686;-36
2023/07/21 00:58:12;;;;;;;0.30;0.30;;;26.80;63.90;;;27.33;47.79;94649.06;5079454;28;20228;-38
2023/07/21 01:00:40;;;;;;;0.22;0.22;;;26.80;63.90;;;27.31;48.20;94648.59;5080757;28;20207;-38
2023/07/21 01:03:13;;;;;;;0.30;0.30;;;26.80;63.90;;;27.28;48.21;94646.50;5080842;28;20230;-40
2023/07/21 01:05:48;;;;;;;0.20;0.20;;;26.80;63.90;;;27.24;47.80;94646.31;5080962;28;20571;-38
2023/07/21 01:08:17;;;;;;;0.30;0.30;;;26.80;65.00;;;27.24;47.64;94645.53;5080216;28;20203;-39
2023/07/21 01:10:45;;;;;;;0.30;0.30;;;26.70;63.70;;;27.22;47.96;94647.72;5080355;28;20194;-40
2023/07/21 01:13:13;;;;;;;0.30;0.30;;;26.70;63.90;;;27.20;47.92;94652.63;5081218;28;20292;-38
2023/07/21 01:15:49;;;;;;;0.22;0.22;;;26.70;63.90;;;27.17;47.81;94649.44;5080204;28;20204;-40
2023/07/21 01:18:19;;;;;;;0.30;0.30;;;26.70;64.00;;;27.15;48.30;94648.16;5081402;28;20203;-35
2023/07/21 01:20:48;;;;;;;0.30;0.30;;;26.70;64.00;;;27.14;47.84;94638.47;5078863;28;20222;-36
2023/07/21 01:23:44;;;;;;;0.30;0.30;;;26.60;64.00;;;27.10;47.92;94643.66;5078489;28;20298;-36
2023/07/21 01:26:13;;;;;;;0.30;0.30;;;26.60;64.20;;;27.10;48.45;94632.09;5078458;28;20192;-36
2023/07/21 01:28:41;;;;;;;0.30;0.30;;;26.60;64.20;;;27.11;48.85;94634.50;5061136;28;20216;-36
2023/07/21 01:31:08;;;;;;;0.40;0.40;;;26.60;64.30;;;27.11;48.90;94633.69;5077475;28;20201;-36
2023/07/21 01:33:37;;;;;;;0.30;0.30;;;26.60;64.40;;;27.10;48.03;94632.91;5078317;28;20207;-36
2023/07/21 01:36:06;;;;;;;0.30;0.30;;;26.60;64.30;;;27.10;48.57;94626.69;5060898;28;20210;-36
2023/07/21 01:38:34;;;;;;;0.30;0.30;;;26.60;64.30;;;27.09;48.48;94639.38;5077128;28;20266;-36
2023/07/21 01:41:02;;;;;;;0.30;0.30;;;26.60;64.20;;;27.06;48.11;94626.53;5078162;28;20217;-35
2023/07/21 01:43:30;;;;;;;0.30;0.30;;;26.60;64.30;;;27.05;48.83;94618.75;5077671;28;20639;-36
2023/07/21 01:45:58;;;;;;;0.30;0.30;;;26.60;65.20;;;27.04;48.31;94619.84;5077780;28;20196;-37
2023/07/21 01:48:25;;;;;;;0.30;0.30;;;26.60;64.30;;;27.03;48.39;94618.28;5078712;28;20320;-35
2023/07/21 01:50:55;;;;;;;0.30;0.30;;;26.60;64.30;;;27.02;48.52;94624.75;5078083;28;20219;-39
2023/07/21 01:53:28;;;;;;;0.32;0.32;;;26.60;64.30;;;26.99;48.88;94613.50;5077672;28;20191;-36
2023/07/21 01:56:03;;;;;;;0.30;0.30;;;26.50;64.30;;;26.99;48.67;94607.31;5076947;28;20229;-36
2023/07/21 01:58:32;;;;;;;0.40;0.40;;;26.50;64.30;;;26.98;48.76;94600.34;5077325;28;20604;-36
2023/07/21 02:01:02;;;;;;;0.30;0.30;;;26.50;64.20;;;26.94;48.25;94602.84;5076862;28;20208;-37
2023/07/21 02:03:29;;;;;;;0.30;0.30;;;26.50;64.20;;;26.92;48.75;94605.03;5076766;28;20281;-37
2023/07/21 02:05:56;;;;;;;0.30;0.30;;;26.50;64.30;;;26.91;48.70;94600.75;5076546;28;20192;-36
2023/07/21 02:08:23;;;;;;;0.30;0.30;;;26.50;64.40;;;26.91;48.72;94600.75;5077971;28;20192;-36
2023/07/21 02:10:52;;;;;;;0.30;0.30;;;26.50;64.40;;;26.90;48.53;94599.16;5077133;28;20257;-39
2023/07/21 02:13:39;;;;;;;0.30;0.30;;;26.40;64.40;;;26.88;48.82;94595.97;5077756;28;20202;-38
2023/07/21 02:16:06;;;;;;;0.30;0.30;;;26.50;64.40;;;26.88;48.66;94603.25;5076795;28;20207;-37
2023/07/21 02:18:35;;;;;;;0.30;0.30;;;26.40;64.50;;;26.86;48.92;94606.25;5076998;28;20255;-36
2023/07/21 02:21:04;;;;;;;0.30;0.30;;;26.40;64.60;;;26.86;48.64;94594.69;5077281;28;20219;-36
2023/07/21 02:23:31;;;;;;;0.30;0.30;;;26.40;64.40;;;26.84;48.94;94592.28;5060555;28;20232;-36
2023/07/21 02:25:59;;;;;;;0.40;0.40;;;26.40;64.50;;;26.84;48.91;94606.56;5076778;28;20219;-38
2023/07/21 02:28:27;;;;;;;0.30;0.30;;;26.40;64.50;;;26.82;48.81;94618.72;5060172;28;20205;-37
2023/07/21 02:31:03;;;;;;;0.30;0.30;;;26.40;64.50;;;26.80;48.77;94610.94;5060686;28;20214;-37
2023/07/21 02:33:32;;;;;;;0.30;0.30;;;26.40;65.50;;;26.80;48.87;94604.75;5078022;28;20373;-37
2023/07/21 02:36:01;;;;;;;0.30;0.30;;;26.40;64.60;;;26.79;48.83;94603.97;5077278;28;20223;-36
2023/07/21 02:38:29;;;;;;;0.30;0.30;;;26.40;64.60;;;26.78;48.72;94605.06;5078072;28;20211;-36
2023/07/21 02:41:04;;;;;;;0.30;0.30;;;26.40;64.60;;;26.76;49.13;94598.41;5078332;28;20211;-36
2023/07/21 02:43:33;;;;;;;0.30;0.30;;;26.30;64.60;;;26.75;48.58;94591.44;5077917;28;20210;-36
2023/07/21 02:46:01;;;;;;;0.30;0.30;;;26.30;64.60;;;26.73;48.68;94610.50;5077607;28;20199;-38
2023/07/21 02:48:32;;;;;;;0.30;0.30;;;26.30;64.50;;;26.72;48.83;94611.63;5077413;28;20207;-38
2023/07/21 02:51:00;;;;;;;0.30;0.30;;;26.30;64.60;;;26.70;49.23;94605.75;5077638;28;20168;-38
2023/07/21 02:53:32;;;;;;;0.40;0.40;;;26.30;64.70;;;26.69;49.31;94604.16;5076188;28;20214;-41
2023/07/21 02:56:03;;;;;;;0.30;0.30;;;26.30;64.80;;;26.68;49.01;94607.94;5059420;28;20689;-37
2023/07/21 02:58:39;;;;;;;0.30;0.30;;;26.30;64.80;;;26.68;48.95;94605.25;5061391;28;20216;-38
2023/07/21 03:01:09;;;;;;;0.38;0.38;;;26.30;64.80;;;26.67;49.64;94603.66;5060227;28;20298;-37
2023/07/21 03:03:37;;;;;;;0.30;0.30;;;26.30;64.80;;;26.63;48.50;94605.38;5076793;28;20219;-38
2023/07/21 03:06:11;;;;;;;0.28;0.28;;;26.30;64.40;;;26.59;48.99;94599.78;5076076;28;20233;-38
2023/07/21 03:08:38;;;;;;;0.30;0.30;;;26.30;64.60;;;26.56;49.18;94589.63;5078968;28;20540;-41
2023/07/21 03:11:13;;;;;;;0.30;0.30;;;26.30;64.70;;;26.55;49.49;94590.75;5060643;28;20201;-39
2023/07/21 03:13:59;;;;;;;0.30;0.30;;;26.20;64.70;;;26.53;49.50;94593.72;5075281;28;20207;-37
2023/07/21 03:16:28;;;;;;;0.30;0.30;;;26.20;64.80;;;26.53;49.66;94593.72;5075513;28;20300;-38
2023/07/21 03:18:56;;;;;;;0.30;0.30;;;26.20;64.70;;;26.51;49.27;94587.84;5075687;28;20210;-38
2023/07/21 03:21:26;;;;;;;0.30;0.30;;;26.20;64.60;;;26.50;49.27;94601.59;5074876;28;20200;-38
2023/07/21 03:23:53;;;;;;;0.30;0.30;;;26.20;64.80;;;26.50;49.75;94594.31;5074988;28;20297;-38
2023/07/21 03:26:26;;;;;;;0.30;0.30;;;26.20;64.80;;;26.49;49.43;94598.09;5074547;28;20295;-36
2023/07/21 03:28:58;;;;;;;0.40;0.40;;;26.10;64.80;;;26.49;49.46;94589.25;5074878;28;20635;-35
2023/07/21 03:31:27;;;;;;;0.30;0.30;;;26.10;64.80;;;26.47;49.26;94586.06;5074813;28;20205;-38
2023/07/21 03:33:58;;;;;;;0.30;0.30;;;26.10;64.80;;;26.46;49.66;94587.16;5074826;28;20260;-38
2023/07/21 03:36:28;;;;;;;0.30;0.30;;;26.10;64.90;;;26.46;49.43;94581.78;5075611;28;20710;-36
2023/07/21 03:38:55;;;;;;;0.30;0.30;;;26.10;64.80;;;26.44;49.30;94587.47;5075087;28;20201;-35
2023/07/21 03:41:23;;;;;;;0.30;0.30;;;26.10;64.90;;;26.44;49.48;94589.34;5074708;28;20206;-36
2023/07/21 03:43:50;;;;;;;0.30;0.30;;;26.10;65.00;;;26.45;49.06;94594.44;5074758;28;20260;-38
2023/07/21 03:46:19;;;;;;;0.35;0.35;;;26.10;65.00;;;26.45;49.91;94588.25;5075159;28;20206;-38
2023/07/21 03:49:06;;;;;;;0.30;0.30;;;26.10;65.00;;;26.44;50.05;94587.47;5076022;28;20682;-37
2023/07/21 03:51:39;;;;;;;0.30;0.30;;;26.10;65.10;;;26.42;49.58;94586.97;5075894;28;20246;-38
2023/07/21 03:54:10;;;;;;;0.32;0.32;;;26.10;65.20;;;26.43;49.57;94579.72;5076111;28;20529;-38
2023/07/21 03:56:39;;;;;;;0.30;0.30;;;26.10;65.20;;;26.43;49.78;94587.78;5074368;28;20201;-38
2023/07/21 03:59:07;;;;;;;0.30;0.30;;;26.10;65.20;;;26.41;49.85;94569.22;5074551;28;20664;-37
2023/07/21 04:01:34;;;;;;;0.30;0.30;;;26.10;66.10;;;26.41;49.54;94563.84;5075790;28;20662;-36
2023/07/21 04:04:02;;;;;;;0.30;0.30;;;26.10;65.20;;;26.42;49.71;94564.66;5075930;28;20234;-36
2023/07/21 04:06:30;;;;;;;0.30;0.30;;;26.00;65.10;;;26.42;50.33;94557.38;5074406;28;20200;-39
2023/07/21 04:08:57;;;;;;;0.30;0.30;;;26.10;65.20;;;26.42;50.09;94565.44;5073524;28;20237;-37
2023/07/21 04:11:24;;;;;;;0.40;0.40;;;26.10;65.20;;;26.41;49.80;94569.22;5074224;28;20688;-37
2023/07/21 04:13:53;;;;;;;0.30;0.30;;;26.10;65.20;;;26.40;49.78;94564.94;5075087;28;20202;-38
2023/07/21 04:16:20;;;;;;;0.40;0.40;;;26.00;65.10;;;26.40;50.34;94559.56;5074475;28;20302;-39
2023/07/21 04:18:48;;;;;;;0.30;0.30;;;26.10;66.20;;;26.40;50.23;94566.84;5075388;28;20502;-38
2023/07/21 04:21:16;;;;;;;0.30;0.30;;;26.10;65.40;;;26.41;50.10;94576.50;5075079;28;20188;-39
2023/07/21 04:23:43;;;;;;;0.30;0.30;;;26.00;65.30;;;26.39;50.09;94563.38;5075215;28;20598;-37
2023/07/21 04:26:14;;;;;;;0.32;0.32;;;26.00;65.40;;;26.40;50.17;94564.16;5074836;28;20234;-38
2023/07/21 04:28:42;;;;;;;0.30;0.30;;;26.10;65.40;;;26.39;50.26;94558.00;5075021;28;20274;-36
2023/07/21 04:31:09;;;;;;;0.30;0.30;;;26.10;65.40;;;26.40;50.25;94566.84;5075955;28;20198;-39
2023/07/21 04:33:49;;;;;;;0.38;0.38;;;26.10;65.50;;;26.37;50.38;94547.53;5074950;28;20288;-37
2023/07/21 04:36:16;;;;;;;0.30;0.30;;;26.10;65.50;;;26.39;50.33;94546.44;5076034;28;20190;-39
2023/07/21 04:38:43;;;;;;;0.30;0.30;;;26.10;65.50;;;26.38;50.35;94553.72;5075633;28;20201;-37
2023/07/21 04:41:16;;;;;;;0.22;0.22;;;26.10;65.50;;;26.39;50.69;94557.19;5073919;28;20267;-38
2023/07/21 04:43:44;;;;;;;0.30;0.30;;;26.10;65.60;;;26.39;50.35;94552.63;5073688;28;20299;-37
2023/07/21 04:46:13;;;;;;;0.20;0.20;;;26.10;65.50;;;26.36;50.20;94550.53;5074335;28;20199;-46
2023/07/21 04:48:43;;;;;;;0.40;0.40;;;26.00;65.10;;;26.34;50.26;94555.41;5073607;28;20714;-43
2023/07/21 04:51:14;;;;;;;0.30;0.30;;;26.10;65.20;;;26.33;50.12;94546.53;5059058;28;20272;-42
2023/07/21 04:53:42;;;;;;;0.50;0.50;;;26.10;65.30;;;26.33;50.00;94554.59;5073574;28;20545;-41
2023/07/21 04:56:09;;;;;;;0.30;0.30;;;26.00;65.20;;;26.33;50.51;94551.09;5073424;28;20219;-41
2023/07/21 04:58:45;;;;;;;0.30;0.30;;;26.10;65.50;;;26.32;50.71;94558.38;5073872;28;20205;-41
2023/07/21 05:01:15;;;;;;;0.40;0.40;;;26.00;65.50;;;26.34;50.48;94558.09;5073767;28;20266;-41
2023/07/21 05:03:42;;;;;;;0.30;0.30;;;26.00;65.50;;;26.34;50.87;94558.09;5074377;28;20214;-41
2023/07/21 05:06:11;;;;;;;0.25;0.25;;;26.00;65.60;;;26.33;50.37;94562.69;5073306;28;20199;-41
2023/07/21 05:08:41;;;;;;;0.30;0.30;;;26.00;65.60;;;26.33;50.60;94553.78;5073686;28;20211;-41
2023/07/21 05:11:09;;;;;;;0.40;0.40;;;26.00;65.60;;;26.33;50.65;94553.78;5074621;28;20239;-41
2023/07/21 05:13:39;;;;;;;0.30;0.30;;;26.00;65.80;;;26.32;50.79;94550.31;5057310;28;20209;-41
2023/07/21 05:16:30;;;;;;;0.30;0.30;;;26.10;65.80;;;26.32;51.13;94550.31;5074292;28;20198;-40
2023/07/21 05:19:04;;;;;;;0.40;0.40;;;26.00;65.70;;;26.33;50.81;94559.16;5074102;28;20192;-39
2023/07/21 05:21:49;;;;;;;0.28;0.28;;;26.00;65.70;;;26.32;51.03;94558.38;5078267;28;20198;-41
2023/07/21 05:24:35;;;;;;;0.30;0.30;;;26.00;65.70;;;26.31;51.03;94564.06;5091510;28;20186;-41
2023/07/21 05:27:06;;;;;;;0.20;0.20;;;26.10;65.90;;;26.31;51.00;94546.03;5076959;28;20296;-43
2023/07/21 05:29:47;;;;;;;0.30;0.30;;;26.00;65.70;;;26.33;50.75;94543.03;5077366;28;20210;-39
2023/07/21 05:32:15;;;;;;;0.30;0.30;;;26.00;65.80;;;26.33;51.09;94537.66;5076825;28;20263;-40
2023/07/21 05:34:49;;;;;;;0.30;0.30;;;26.10;65.90;;;26.33;51.25;94545.72;5077359;28;20213;-43
2023/07/21 05:37:16;;;;;;;0.30;0.30;;;26.00;65.90;;;26.32;51.02;94544.94;5076619;28;20192;-40
2023/07/21 05:39:45;;;;;;;0.30;0.30;;;26.10;65.90;;;26.33;51.05;94546.53;5077190;28;20211;-39
2023/07/21 05:42:13;;;;;;;0.30;0.30;;;26.00;65.90;;;26.33;51.10;94560.00;5076839;28;20642;-41
2023/07/21 05:44:45;;;;;;;0.30;0.30;;;26.00;65.80;;;26.33;50.93;94560.00;5076557;28;20235;-41
2023/07/21 05:47:14;;;;;;;0.30;0.30;;;26.00;65.80;;;26.33;50.96;94562.69;5076704;28;20235;-41
2023/07/21 05:49:41;;;;;;;0.30;0.30;;;26.00;65.90;;;26.33;50.95;94546.53;5060191;28;20291;-41
2023/07/21 05:52:09;;;;;;;0.30;0.30;;;26.00;65.90;;;26.34;50.83;94539.25;5076471;28;20253;-41
2023/07/21 05:54:41;;;;;;;0.30;0.30;;;26.00;65.90;;;26.34;51.17;94528.50;5076493;28;20565;-41
2023/07/21 05:57:08;;;;;;;0.20;0.20;;;26.00;66.00;;;26.34;50.93;94523.13;5076256;28;20282;-41
2023/07/21 05:59:41;;;;;;;0.30;0.30;;;26.00;65.90;;;26.34;50.89;94525.81;5076588;28;20270;-41
2023/07/21 06:02:08;;;;;;;0.30;0.30;;;26.00;65.90;;;26.34;50.80;94540.06;5076243;28;20242;-41
2023/07/21 06:04:36;;;;;;;0.30;0.30;;;26.00;65.90;;;26.33;51.26;94530.41;5076234;28;20189;-41
2023/07/21 06:07:25;;;;;;;0.30;0.30;;;26.00;65.90;;;26.32;51.11;94531.50;5076078;28;20201;-41
2023/07/21 06:10:10;;;;;;;0.30;0.30;;;26.00;65.90;;;26.32;50.88;94541.47;5077479;28;20595;-41
2023/07/21 06:12:56;;;;;;;0.30;0.30;;;26.00;65.90;;;26.32;51.06;94544.94;5077336;28;20196;-41
2023/07/21 06:15:43;;;;;;;0.50;0.50;;;26.00;65.90;;;26.32;51.29;94550.31;5070092;28;20304;-41
2023/07/21 06:18:17;;;;;;;0.30;0.30;;;26.00;65.90;;;26.33;51.05;94549.22;5077264;28;20185;-39
2023/07/21 06:20:44;;;;;;;0.30;0.30;;;26.00;66.00;;;26.34;50.93;94550.81;5075929;28;20207;-41
2023/07/21 06:23:11;;;;;;;0.30;0.30;;;26.00;66.00;;;26.35;51.38;94554.31;5076054;28;20220;-41
2023/07/21 06:25:40;;;;;;;0.30;0.30;;;26.00;66.10;;;26.35;51.19;94560.50;5075685;28;20196;-41
2023/07/21 06:28:13;;;;;;;0.30;0.30;;;26.00;66.00;;;26.35;51.11;94555.13;5060285;28;20274;-40
2023/07/21 06:30:40;;;;;;;0.40;0.40;;;26.00;66.00;;;26.37;51.08;94552.91;5074750;28;20202;-41
2023/07/21 06:33:12;;;;;;;0.30;0.30;;;26.10;66.10;;;26.38;51.19;94553.72;5076001;28;20248;-41
2023/07/21 06:35:43;;;;;;;0.30;0.30;;;26.00;66.00;;;26.38;51.44;94556.41;5075763;28;20540;-39
2023/07/21 06:38:31;;;;;;;0.30;0.30;;;26.00;66.00;;;26.37;51.14;94550.22;5069703;28;20264;-40
2023/07/21 06:41:12;;;;;;;0.25;0.25;;;26.10;66.10;;;26.40;51.41;94556.88;5075574;28;20199;-40
2023/07/21 06:43:58;;;;;;;0.30;0.30;;;26.10;66.10;;;26.40;50.96;94551.50;5076556;28;20605;-41
2023/07/21 06:46:49;;;;;;;0.20;0.20;;;26.10;66.00;;;26.40;50.90;94537.28;5075991;28;20277;-40
2023/07/21 06:49:35;;;;;;;0.28;0.28;;;26.10;66.10;;;26.40;51.30;94529.19;5076884;28;20248;-41
2023/07/21 06:52:15;;;;;;;0.30;0.30;;;26.10;66.00;;;26.40;51.05;94524.59;5075291;28;20588;-40
2023/07/21 06:54:42;;;;;;;0.30;0.30;;;26.10;66.00;;;26.41;50.83;94523.50;5076192;28;20193;-40
2023/07/21 06:57:10;;;;;;;0.30;0.30;;;26.10;65.90;;;26.43;50.51;94520.53;5075024;28;20265;-41
2023/07/21 06:59:38;;;;;;;0.32;0.32;;;26.10;65.70;;;26.43;50.79;94520.53;5076093;28;20193;-40
2023/07/21 07:02:06;;;;;;;0.30;0.30;;;26.10;65.50;;;26.44;50.31;94520.25;5058831;28;20204;-41
2023/07/21 07:04:33;;;;;;;0.30;0.30;;;26.10;65.30;;;26.43;49.95;94518.63;5075917;28;20667;-40
2023/07/21 07:07:00;;;;;;;0.40;0.40;;;26.10;65.20;;;26.44;50.03;94506.78;5074875;28;20621;-40
2023/07/21 07:09:27;;;;;;;0.30;0.30;;;26.10;65.10;;;26.44;50.05;94512.16;5076327;28;20206;-38
2023/07/21 07:11:54;;;;;;;0.32;0.32;;;26.10;65.00;;;26.44;49.74;94505.97;5076094;28;20287;-40
2023/07/21 07:14:22;;;;;;;0.30;0.30;;;26.10;64.90;;;26.45;49.62;94511.06;5076103;28;20190;-41
2023/07/21 07:16:49;;;;;;;0.30;0.30;;;26.10;64.90;;;26.44;49.50;94512.16;5075769;28;20254;-40
2023/07/21 07:19:17;;;;;;;0.30;0.30;;;26.10;64.90;;;26.45;49.39;94518.34;5075973;28;20594;-40
2023/07/21 07:21:44;;;;;;;0.30;0.30;;;26.10;64.80;;;26.45;49.65;94523.72;5075738;28;20585;-38
2023/07/21 07:24:11;;;;;;;0.30;0.30;;;26.00;64.70;;;26.45;49.49;94518.34;5075560;28;20228;-38
2023/07/21 07:26:38;;;;;;;0.30;0.30;;;26.10;64.70;;;26.45;49.30;94519.16;5074517;28;20212;-40
2023/07/21 07:29:05;;;;;;;0.30;0.30;;;26.10;64.70;;;26.46;49.11;94526.09;5075832;28;20210;-40
2023/07/21 07:31:32;;;;;;;0.30;0.30;;;26.10;64.60;;;26.45;48.87;94516.44;5075712;28;20302;-40
2023/07/21 07:34:00;;;;;;;0.30;0.30;;;26.10;64.40;;;26.45;48.73;94524.53;5075805;28;20538;-39
2023/07/21 07:36:27;;;;;;;0.30;0.30;;;26.10;64.40;;;26.45;48.84;94521.84;5075266;28;20280;-40
2023/07/21 07:38:54;;;;;;;0.32;0.32;;;26.10;64.40;;;26.46;48.68;94525.31;5075361;28;20211;-40
2023/07/21 07:41:21;;;;;;;0.35;0.35;;;26.10;64.40;;;26.47;48.79;94522.31;5075641;28;20222;-40
2023/07/21 07:43:48;;;;;;;0.30;0.30;;;26.10;64.40;;;26.46;48.91;94526.09;5075105;28;20215;-40
2023/07/21 07:46:17;;;;;;;0.30;0.30;;;26.00;64.30;;;26.48;48.99;94515.06;5075383;28;20212;-40
2023/07/21 07:48:45;;;;;;;0.30;0.30;;;26.10;64.40;;;26.48;48.90;94515.06;5075495;28;20257;-40
2023/07/21 07:51:12;;;;;;;0.20;0.20;;;26.10;64.20;;;26.47;48.29;94510.75;5075437;28;20187;-40
2023/07/21 07:53:39;;;;;;;0.30;0.30;;;26.10;64.30;;;26.48;48.90;94504.28;5074239;28;20266;-40
2023/07/21 07:56:12;;;;;;;0.30;0.30;;;26.10;64.20;;;26.48;48.65;94501.59;5075219;28;20211;-40
2023/07/21 07:58:39;;;;;;;0.30;0.30;;;26.10;64.20;;;26.50;48.45;94510.16;5091606;28;20239;-40
2023/07/21 08:01:06;;;;;;;0.28;0.28;;;26.10;64.30;;;26.49;48.84;94498.59;5075075;28;20525;-40
2023/07/21 08:03:34;;;;;;;0.32;0.32;;;26.10;64.20;;;26.49;48.69;94512.06;5075025;28;20247;-40
2023/07/21 08:06:01;;;;;;;0.22;0.22;;;26.10;64.30;;;26.50;48.87;94508.28;5075138;28;20196;-40
2023/07/21 08:08:28;;;;;;;0.30;0.30;;;26.10;64.20;;;26.51;48.46;94498.28;5074959;28;20644;-40
2023/07/21 08:10:55;;;;;;;0.20;0.20;;;26.10;64.20;;;26.51;48.23;94496.41;5074267;28;20285;-40
2023/07/21 08:13:22;;;;;;;0.30;0.30;;;26.10;64.10;;;26.52;48.24;94495.31;5074987;28;20240;-40
2023/07/21 08:15:49;;;;;;;0.30;0.30;;;26.10;64.10;;;26.52;48.42;94484.56;5074957;28;20292;-40
2023/07/21 08:18:16;;;;;;;0.30;0.30;;;26.10;64.10;;;26.53;48.40;94485.34;5074693;28;20634;-40
2023/07/21 08:20:43;;;;;;;0.25;0.25;;;26.10;64.00;;;26.54;48.40;94478.88;5075129;28;20198;-40
2023/07/21 08:23:10;;;;;;;0.30;0.30;;;26.10;63.90;;;26.54;48.00;94476.19;5075278;28;20217;-40
2023/07/21 08:25:56;;;;;;;0.20;0.20;;;26.10;63.90;;;26.55;47.95;94475.09;5075144;28;20259;-40
2023/07/21 08:28:24;;;;;;;0.30;0.30;;;26.10;64.80;;;26.55;47.87;94475.09;5074732;28;20660;-40
2023/07/21 08:30:51;;;;;;;0.30;0.30;;;26.10;64.70;;;26.58;47.78;94487.13;5073974;28;20339;-40
2023/07/21 08:33:27;;;;;;;0.30;0.30;;;26.10;63.80;;;26.58;47.72;94482.53;5075303;28;20267;-40
2023/07/21 08:35:54;;;;;;;0.30;0.30;;;26.10;63.70;;;26.59;48.04;94472.59;5074771;28;20197;-41
2023/07/21 08:38:21;;;;;;;0.30;0.30;;;26.10;63.60;;;26.61;47.83;94471.19;5074594;28;20200;-40
2023/07/21 08:40:55;;;;;;;0.30;0.30;;;26.10;63.60;;;26.62;47.47;94470.09;5074715;28;20262;-40
2023/07/21 08:43:22;;;;;;;0.20;0.20;;;26.10;63.60;;;26.64;47.70;94469.78;5073766;28;20217;-40
2023/07/21 08:45:50;;;;;;;0.30;0.30;;;26.10;63.50;;;26.65;47.88;94458.69;5075507;28;20237;-40
2023/07/21 08:48:18;;;;;;;0.30;0.30;;;26.20;63.50;;;26.65;47.79;94453.31;5074441;28;20221;-40
2023/07/21 08:50:48;;;;;;;0.30;0.30;;;26.20;63.50;;;26.69;47.25;94461.56;5074003;28;20243;-40
2023/07/21 08:53:16;;;;;;;0.30;0.30;;;26.20;63.40;;;26.69;47.46;94456.97;5075075;28;20635;-40
2023/07/21 08:55:42;;;;;;;0.30;0.30;;;26.20;63.50;;;26.72;47.55;94462.84;5078140;28;20503;-40
2023/07/21 08:58:10;;;;;;;0.30;0.30;;;26.20;63.40;;;26.73;47.52;94462.53;5078301;28;20200;-40
2023/07/21 09:00:38;;;;;;;0.30;0.30;;;26.20;63.40;;;26.73;47.52;94459.84;5078283;28;20212;-40
2023/07/21 09:03:05;;;;;;;0.30;0.30;;;26.20;63.30;;;26.76;47.65;94463.88;5078278;28;20278;-40
2023/07/21 09:05:33;;;;;;;0.30;0.30;;;26.20;63.30;;;26.76;47.18;94459.28;5078318;28;20194;-40
2023/07/21 09:08:01;;;;;;;0.20;0.20;;;26.30;63.30;;;26.78;46.94;94457.09;5078047;28;20275;-40
2023/07/21 09:10:34;;;;;;;0.30;0.30;;;26.30;63.20;;;26.78;47.20;94458.97;5077271;28;20263;-40
2023/07/21 09:13:02;;;;;;;0.20;0.20;;;26.30;62.90;;;26.78;47.02;94459.78;5078185;28;20179;-40
2023/07/21 09:15:29;;;;;;;0.30;0.30;;;26.30;63.10;;;26.80;47.38;94462.16;5078347;28;20624;-40
2023/07/21 09:17:56;;;;;;;0.30;0.30;;;26.30;63.10;;;26.82;47.09;94465.34;5077921;28;20195;-40
2023/07/21 09:20:23;;;;;;;0.30;0.30;;;26.30;63.00;;;26.82;46.96;94465.34;5078092;28;20183;-40
2023/07/21 09:22:50;;;;;;;0.28;0.28;;;26.30;63.00;;;26.83;46.85;94456.97;5078223;28;20246;-40
2023/07/21 09:25:21;;;;;;;0.22;0.22;;;26.30;62.90;;;26.84;46.83;94457.75;5077846;28;20216;-40
2023/07/21 09:27:57;;;;;;;0.30;0.30;;;26.30;62.60;;;26.84;46.66;94450.47;5078029;28;20210;-40
2023/07/21 09:30:25;;;;;;;0.30;0.30;;;26.30;62.70;;;26.86;46.66;94439.41;5078208;28;20186;-40
2023/07/21 09:32:55;;;;;;;0.35;0.35;;;26.30;62.80;;;26.88;46.88;94436.41;5078233;28;20198;-40
2023/07/21 09:35:22;;;;;;;0.30;0.30;;;26.40;62.70;;;26.90;46.74;94434.22;5078089;28;20188;-40
2023/07/21 09:37:51;;;;;;;0.30;0.30;;;26.40;63.80;;;26.91;46.49;94435.81;5077720;28;20289;-40
2023/07/21 09:40:28;;;;;;;0.30;0.30;;;26.40;62.80;;;26.91;46.40;94441.19;5077663;28;20233;-40
2023/07/21 09:42:55;;;;;;;0.30;0.30;;;26.40;62.60;;;26.93;46.21;94441.69;5077667;28;20203;-40
2023/07/21 09:45:25;;;;;;;0.30;0.30;;;26.40;63.60;;;26.93;46.89;94429.00;5077535;28;20736;-40
2023/07/21 09:47:55;;;;;;;0.40;0.40;;;26.40;62.70;;;26.94;46.40;94427.91;5076412;28;20247;-40
2023/07/21 09:50:22;;;;;;;0.30;0.30;;;26.40;62.70;;;26.96;46.50;94428.38;5076967;28;20181;-40
2023/07/21 09:52:53;;;;;;;0.22;0.22;;;26.40;62.70;;;26.96;46.67;94428.38;5076643;28;20216;-40
2023/07/21 09:55:22;;;;;;;0.30;0.30;;;26.40;62.60;;;26.98;46.15;94430.78;5077767;28;20635;-39
2023/07/21 09:57:50;;;;;;;0.30;0.30;;;26.40;62.50;;;26.99;46.03;94427.78;5077376;28;20633;-40
2023/07/21 10:00:18;;;;;;;0.20;0.20;;;26.40;62.50;;;27.00;46.37;94434.75;5077384;28;20202;-40
2023/07/21 10:02:52;;;;;;;0.30;0.30;;;26.50;62.50;;;27.03;46.15;94424.47;5077269;28;20199;-40
2023/07/21 10:05:20;;;;;;;0.38;0.38;;;26.50;62.30;;;27.02;46.33;94429.06;5077677;28;20292;-40
2023/07/21 10:07:50;;;;;;;0.25;0.25;;;26.50;62.40;;;27.02;46.33;94420.97;5077155;28;20206;-41
2023/07/21 10:10:18;;;;;;;0.30;0.30;;;26.50;62.20;;;27.05;45.80;94424.94;5077123;28;20183;-40
2023/07/21 10:12:52;;;;;;;0.30;0.30;;;26.50;62.30;;;27.06;45.75;94421.16;5077096;28;20189;-40
2023/07/21 10:15:27;;;;;;;0.30;0.30;;;26.50;62.10;;;27.07;45.88;94417.38;5076531;28;20590;-40
2023/07/21 10:18:11;;;;;;;0.30;0.30;;;26.50;62.10;;;27.09;45.60;94417.84;5077090;28;20216;-40
2023/07/21 10:20:52;;;;;;;0.30;0.30;;;26.50;62.10;;;27.11;45.81;94415.63;5077202;28;20204;-40
2023/07/21 10:23:39;;;;;;;0.30;0.30;;;26.50;62.10;;;27.12;45.86;94411.84;5077365;28;20219;-40
2023/07/21 10:26:08;;;;;;;0.30;0.30;;;26.50;62.60;;;27.12;45.84;94401.88;5076105;28;20527;-37
2023/07/21 10:28:46;;;;;;;0.30;0.30;;;26.60;62.20;;;27.15;45.87;94397.78;5076977;28;20203;-37
2023/07/21 10:31:25;;;;;;;0.30;0.30;;;26.60;62.10;;;27.18;46.14;94399.84;5077025;28;20214;-37
2023/07/21 10:34:06;;;;;;;0.30;0.30;;;26.60;62.10;;;27.19;45.98;94393.34;5075990;28;20183;-37